createdAt,value
2023-01-26T00:00:56.011Z,64.52
2023-01-26T00:03:23.305Z,64.86
2023-01-26T00:05:50.735Z,64.79
2023-01-26T00:08:18.143Z,64.71
2023-01-26T00:10:51.697Z,64.48
2023-01-26T00:13:19.915Z,64.35
2023-01-26T00:15:47.313Z,64.41
2023-01-26T00:18:14.769Z,64.27
2023-01-26T00:20:41.998Z,64.63
2023-01-26T00:23:09.261Z,64.56
2023-01-26T00:25:37.896Z,64.68
2023-01-26T00:28:05.255Z,64.67
2023-01-26T00:30:32.510Z,64.51
2023-01-26T00:32:59.764Z,64.69
2023-01-26T00:35:27.014Z,64.53
2023-01-26T00:37:54.993Z,64.39
2023-01-26T00:40:22.237Z,64.86
2023-01-26T00:42:49.631Z,64.78
2023-01-26T00:45:16.947Z,64.84
2023-01-26T00:47:45.786Z,65.01
2023-01-26T00:50:13.715Z,64.91
2023-01-26T00:52:41.239Z,64.47
2023-01-26T00:55:08.889Z,64.60
2023-01-26T00:57:36.151Z,64.83
2023-01-26T01:00:04.739Z,64.55
2023-01-26T01:02:32.171Z,64.21
2023-01-26T01:04:59.508Z,64.41
2023-01-26T01:07:26.716Z,64.69
2023-01-26T01:09:53.913Z,64.52
2023-01-26T01:12:21.092Z,64.78
2023-01-26T01:14:48.315Z,64.05
2023-01-26T01:17:15.532Z,64.17
2023-01-26T01:19:42.913Z,64.34
2023-01-26T01:22:10.386Z,64.52
2023-01-26T01:24:37.787Z,64.51
2023-01-26T01:27:05.017Z,64.19
2023-01-26T01:29:32.410Z,64.64
2023-01-26T01:31:59.695Z,64.52
2023-01-26T01:34:28.144Z,64.49
2023-01-26T01:36:56.347Z,64.76
2023-01-26T01:39:23.627Z,64.64
2023-01-26T01:41:51.327Z,64.53
2023-01-26T01:44:20.428Z,64.61
2023-01-26T01:47:07.953Z,64.44
2023-01-26T01:49:38.673Z,63.77
2023-01-26T01:52:08.967Z,64.04
2023-01-26T01:54:44.653Z,63.67
2023-01-26T01:57:18.413Z,64.04
2023-01-26T01:59:49.608Z,63.95
2023-01-26T02:02:16.921Z,64.15
2023-01-26T02:04:44.737Z,64.17
2023-01-26T02:07:12.254Z,64.09
2023-01-26T02:10:00.221Z,64.30
2023-01-26T02:12:29.534Z,63.80
2023-01-26T02:14:57.999Z,63.81
2023-01-26T02:17:26.805Z,63.48
2023-01-26T02:19:57.082Z,63.73
2023-01-26T02:22:44.299Z,63.50
2023-01-26T02:25:25.683Z,63.83
2023-01-26T02:27:52.933Z,64.16
2023-01-26T02:30:22.667Z,63.78
2023-01-26T02:32:50.050Z,63.66
2023-01-26T02:35:17.569Z,63.68
2023-01-26T02:37:45.216Z,63.55
2023-01-26T02:40:13.003Z,63.76
2023-01-26T02:42:42.145Z,63.66
2023-01-26T02:45:11.007Z,63.43
2023-01-26T02:47:38.323Z,63.79
2023-01-26T02:50:06.083Z,63.64
2023-01-26T02:52:33.739Z,63.66
2023-01-26T02:55:28.445Z,63.88
2023-01-26T02:57:57.411Z,64.31
2023-01-26T03:00:29.087Z,64.19
2023-01-26T03:02:58.727Z,64.37
2023-01-26T03:05:26.768Z,64.29
2023-01-26T03:07:55.626Z,64.50
2023-01-26T03:10:27.205Z,64.48
2023-01-26T03:12:54.682Z,64.52
2023-01-26T03:15:40.581Z,64.94
2023-01-26T03:18:27.572Z,64.49
2023-01-26T03:21:13.503Z,64.57
2023-01-26T03:23:59.397Z,64.80
2023-01-26T03:26:46.808Z,64.42
2023-01-26T03:29:14.068Z,64.52
2023-01-26T03:31:43.311Z,64.67
2023-01-26T03:34:11.319Z,64.36
2023-01-26T03:36:39.497Z,64.43
2023-01-26T03:39:32.025Z,64.07
2023-01-26T03:42:18.222Z,64.06
2023-01-26T03:45:04.266Z,63.70
2023-01-26T03:47:50.689Z,63.42
2023-01-26T03:50:37.168Z,63.75
2023-01-26T03:53:37.220Z,63.76
2023-01-26T03:56:24.551Z,63.42
2023-01-26T03:58:56.786Z,63.59
2023-01-26T04:01:28.242Z,63.87
2023-01-26T04:04:17.192Z,63.90
2023-01-26T04:07:06.082Z,64.21
2023-01-26T04:09:34.883Z,63.87
2023-01-26T04:12:02.488Z,63.91
2023-01-26T04:14:50.613Z,63.98
2023-01-26T04:17:42.988Z,64.14
2023-01-26T04:20:28.909Z,64.69
2023-01-26T04:22:56.470Z,64.40
2023-01-26T04:25:24.074Z,64.07
2023-01-26T04:27:51.794Z,63.94
2023-01-26T04:30:19.952Z,64.16
2023-01-26T04:32:47.338Z,63.83
2023-01-26T04:35:14.855Z,63.90
2023-01-26T04:37:44.012Z,63.81
2023-01-26T04:40:11.818Z,64.20
2023-01-26T04:42:40.363Z,63.84
2023-01-26T04:45:09.122Z,64.11
2023-01-26T04:47:36.818Z,64.04
2023-01-26T04:50:04.857Z,63.78
2023-01-26T04:52:32.689Z,63.96
2023-01-26T04:55:00.561Z,64.18
2023-01-26T04:57:30.288Z,63.44
2023-01-26T04:59:59.792Z,63.83
2023-01-26T05:02:27.195Z,63.73
2023-01-26T05:04:54.486Z,63.42
2023-01-26T05:07:22.290Z,63.62
2023-01-26T05:09:50.129Z,63.70
2023-01-26T05:12:43.436Z,64.08
2023-01-26T05:15:28.575Z,63.71
2023-01-26T05:18:05.396Z,63.68
2023-01-26T05:20:39.762Z,63.06
2023-01-26T05:23:16.177Z,62.96
2023-01-26T05:26:06.432Z,63.07
2023-01-26T05:28:44.141Z,62.80
2023-01-26T05:31:11.389Z,62.98
2023-01-26T05:33:38.798Z,63.10
2023-01-26T05:36:07.951Z,63.14
2023-01-26T05:38:36.034Z,63.04
2023-01-26T05:41:03.726Z,63.20
2023-01-26T05:43:38.834Z,63.18
2023-01-26T05:46:12.306Z,62.78
2023-01-26T05:48:42.846Z,62.57
2023-01-26T05:51:10.050Z,62.59
2023-01-26T05:53:38.525Z,62.19
2023-01-26T05:56:06.019Z,62.63
2023-01-26T05:58:35.337Z,62.94
2023-01-26T06:01:06.138Z,62.84
2023-01-26T06:03:43.003Z,63.03
2023-01-26T06:06:10.504Z,62.65
2023-01-26T06:08:44.738Z,62.63
2023-01-26T06:11:31.693Z,62.78
2023-01-26T06:14:08.670Z,62.88
2023-01-26T06:16:35.944Z,62.64
2023-01-26T06:19:03.616Z,62.11
2023-01-26T06:21:31.190Z,62.09
2023-01-26T06:23:58.789Z,62.37
2023-01-26T06:26:26.405Z,62.81
2023-01-26T06:28:55.646Z,63.03
2023-01-26T06:31:24.939Z,62.86
2023-01-26T06:33:52.833Z,62.03
2023-01-26T06:36:20.308Z,62.04
2023-01-26T06:38:54.948Z,62.25
2023-01-26T06:41:23.560Z,62.41
2023-01-26T06:43:51.285Z,62.26
2023-01-26T06:46:19.796Z,62.14
2023-01-26T06:48:49.449Z,61.97
2023-01-26T06:51:16.905Z,62.16
2023-01-26T06:53:51.633Z,62.37
2023-01-26T06:56:42.089Z,62.30
2023-01-26T06:59:32.258Z,62.51
2023-01-26T07:02:20.320Z,62.73
2023-01-26T07:04:48.080Z,62.71
2023-01-26T07:07:15.642Z,62.16
2023-01-26T07:09:43.545Z,61.87
2023-01-26T07:12:10.983Z,61.87
2023-01-26T07:14:38.264Z,62.11
2023-01-26T07:17:05.703Z,61.99
2023-01-26T07:19:34.009Z,61.76
2023-01-26T07:22:01.922Z,62.00
2023-01-26T07:24:29.798Z,61.49
2023-01-26T07:26:57.287Z,61.84
2023-01-26T07:29:25.010Z,61.73
2023-01-26T07:31:52.416Z,61.67
2023-01-26T07:34:20.178Z,61.98
2023-01-26T07:36:47.436Z,61.82
2023-01-26T07:39:14.666Z,61.92
2023-01-26T07:41:41.949Z,62.62
2023-01-26T07:44:28.645Z,62.05
2023-01-26T07:46:56.067Z,62.25
2023-01-26T07:49:23.467Z,61.93
2023-01-26T07:51:52.617Z,61.99
2023-01-26T07:54:21.861Z,61.75
2023-01-26T07:56:53.168Z,61.59
2023-01-26T07:59:20.843Z,61.60
2023-01-26T08:01:51.684Z,61.75
2023-01-26T08:04:19.418Z,61.39
2023-01-26T08:06:46.734Z,61.59
2023-01-26T08:09:14.085Z,61.44
2023-01-26T08:11:41.308Z,61.59
2023-01-26T08:14:08.533Z,61.56
2023-01-26T08:16:36.139Z,61.46
2023-01-26T08:19:04.001Z,61.11
2023-01-26T08:21:31.273Z,60.99
2023-01-26T08:24:02.089Z,61.00
2023-01-26T08:26:29.678Z,61.13
2023-01-26T08:28:57.598Z,61.08
2023-01-26T08:31:25.613Z,60.83
2023-01-26T08:33:54.439Z,60.95
2023-01-26T08:36:22.873Z,60.86
2023-01-26T08:38:50.940Z,60.64
2023-01-26T08:41:18.804Z,60.58
2023-01-26T08:43:46.416Z,60.66
2023-01-26T08:46:14.027Z,60.85
2023-01-26T08:48:41.335Z,60.62
2023-01-26T08:51:08.849Z,60.31
2023-01-26T08:53:37.404Z,60.03
2023-01-26T08:56:06.238Z,59.83
2023-01-26T08:58:36.344Z,60.14
2023-01-26T09:01:08.103Z,60.49
2023-01-26T09:03:35.658Z,60.90
2023-01-26T09:06:04.501Z,60.56
2023-01-26T09:08:34.229Z,60.61
2023-01-26T09:11:01.590Z,60.92
2023-01-26T09:13:28.864Z,60.85
2023-01-26T09:15:56.172Z,61.03
2023-01-26T09:18:23.464Z,60.57
2023-01-26T09:20:51.399Z,60.13
2023-01-26T09:23:18.816Z,60.72
2023-01-26T09:25:46.250Z,60.47
2023-01-26T09:28:13.463Z,60.62
2023-01-26T09:30:40.955Z,60.80
2023-01-26T09:33:08.286Z,60.82
2023-01-26T09:35:35.536Z,60.40
2023-01-26T09:38:02.817Z,60.33
2023-01-26T09:40:30.015Z,60.12
2023-01-26T09:42:57.490Z,60.43
2023-01-26T09:45:29.297Z,59.73
2023-01-26T09:48:05.421Z,60.21
2023-01-26T09:50:40.214Z,59.92
2023-01-26T09:53:13.076Z,60.08
2023-01-26T09:55:40.656Z,59.88
2023-01-26T09:58:26.526Z,60.39
2023-01-26T10:00:57.659Z,60.20
2023-01-26T10:03:29.373Z,60.34
2023-01-26T10:06:15.893Z,60.66
2023-01-26T10:09:06.343Z,60.48
2023-01-26T10:11:35.340Z,60.70
2023-01-26T10:14:25.973Z,59.77
2023-01-26T10:16:53.994Z,59.97
2023-01-26T10:19:33.865Z,59.98
2023-01-26T10:22:07.021Z,60.23
2023-01-26T10:24:35.256Z,60.73
2023-01-26T10:27:02.550Z,60.53
2023-01-26T10:29:29.854Z,60.54
2023-01-26T10:31:57.130Z,60.75
2023-01-26T10:34:25.521Z,60.47
2023-01-26T10:36:56.981Z,60.34
2023-01-26T10:39:24.211Z,60.32
2023-01-26T10:42:01.997Z,60.36
2023-01-26T10:44:34.231Z,60.69
2023-01-26T10:47:04.656Z,60.50
2023-01-26T10:49:31.896Z,60.62
2023-01-26T10:52:35.898Z,60.86
2023-01-26T10:55:13.338Z,61.21
2023-01-26T10:57:42.863Z,61.64
2023-01-26T11:00:30.501Z,61.66
2023-01-26T11:03:00.876Z,61.76
2023-01-26T11:05:28.391Z,61.69
2023-01-26T11:08:00.491Z,61.49
2023-01-26T11:10:30.510Z,61.38
2023-01-26T11:13:17.606Z,61.12
2023-01-26T11:15:48.057Z,61.86
2023-01-26T11:18:33.729Z,61.01
2023-01-26T11:21:10.305Z,61.61
2023-01-26T11:23:42.456Z,61.88
2023-01-26T11:26:09.813Z,61.41
2023-01-26T11:29:09.494Z,61.56
2023-01-26T11:31:39.151Z,61.24
2023-01-26T11:34:29.363Z,61.36
2023-01-26T11:37:11.757Z,61.77
2023-01-26T11:39:44.933Z,61.92
2023-01-26T11:42:25.351Z,61.82
2023-01-26T11:44:58.803Z,61.57
2023-01-26T11:47:32.046Z,61.27
2023-01-26T11:50:14.601Z,61.84
2023-01-26T11:52:48.846Z,61.40
2023-01-26T11:55:42.131Z,61.76
2023-01-26T11:58:12.665Z,62.30
2023-01-26T12:00:44.319Z,61.72
2023-01-26T12:03:30.083Z,62.11
2023-01-26T12:06:06.871Z,62.25
2023-01-26T12:08:38.465Z,61.70
2023-01-26T12:11:23.725Z,61.65
2023-01-26T12:13:54.135Z,61.93
2023-01-26T12:16:27.674Z,61.97
2023-01-26T12:19:10.853Z,62.18
2023-01-26T12:21:40.285Z,61.91
2023-01-26T12:24:35.773Z,61.95
2023-01-26T12:27:00.701Z,62.10
2023-01-26T12:29:41.713Z,62.36
2023-01-26T12:32:11.303Z,61.84
2023-01-26T12:34:38.584Z,61.90
2023-01-26T12:37:17.960Z,62.36
2023-01-26T12:39:46.187Z,62.07
2023-01-26T12:42:19.489Z,62.15
2023-01-26T12:44:50.598Z,61.94
2023-01-26T12:47:36.323Z,62.20
2023-01-26T12:50:16.343Z,62.26
2023-01-26T12:52:50.629Z,62.28
2023-01-26T12:55:20.951Z,62.16
2023-01-26T12:57:51.021Z,62.59
2023-01-26T13:00:20.916Z,62.08
2023-01-26T13:02:51.725Z,61.76
2023-01-26T13:05:35.132Z,62.25
2023-01-26T13:08:21.026Z,61.96
2023-01-26T13:10:50.668Z,61.88
2023-01-26T13:13:17.886Z,62.07
2023-01-26T13:15:45.527Z,61.98
2023-01-26T13:18:17.381Z,62.03
2023-01-26T13:20:46.077Z,62.27
2023-01-26T13:23:28.671Z,62.39
2023-01-26T13:26:15.190Z,62.04
2023-01-26T13:28:42.897Z,62.28
2023-01-26T13:31:11.606Z,62.52
2023-01-26T13:33:40.042Z,62.30
2023-01-26T13:36:18.383Z,61.93
2023-01-26T13:38:55.892Z,62.34
2023-01-26T13:41:23.235Z,62.19
2023-01-26T13:44:05.042Z,62.03
2023-01-26T13:46:36.781Z,62.40
2023-01-26T13:49:04.065Z,61.73
2023-01-26T13:51:32.469Z,61.56
2023-01-26T13:54:07.640Z,61.58
2023-01-26T13:56:36.533Z,61.76
2023-01-26T13:59:05.032Z,61.33
2023-01-26T14:01:32.521Z,61.80
2023-01-26T14:04:06.879Z,62.29
2023-01-26T14:06:36.667Z,62.09
2023-01-26T14:09:05.139Z,62.00
2023-01-26T14:11:33.310Z,61.99
2023-01-26T14:14:01.605Z,61.95
2023-01-26T14:16:30.587Z,62.19
2023-01-26T14:19:09.967Z,61.64
2023-01-26T14:21:46.544Z,61.85
2023-01-26T14:24:13.951Z,62.61
2023-01-26T14:26:41.963Z,62.17
2023-01-26T14:29:18.391Z,62.23
2023-01-26T14:31:46.819Z,62.16
2023-01-26T14:34:18.405Z,62.11
2023-01-26T14:36:45.632Z,61.85
2023-01-26T14:39:20.432Z,62.53
2023-01-26T14:41:48.788Z,62.10
2023-01-26T14:44:16.228Z,61.83
2023-01-26T14:46:49.750Z,62.03
2023-01-26T14:49:20.784Z,61.88
2023-01-26T14:51:52.056Z,62.21
2023-01-26T14:54:25.349Z,62.40
2023-01-26T14:56:52.706Z,62.52
2023-01-26T14:59:25.178Z,62.63
2023-01-26T15:02:02.300Z,62.72
2023-01-26T15:04:36.842Z,63.01
2023-01-26T15:07:22.609Z,63.04
2023-01-26T15:09:53.578Z,63.05
2023-01-26T15:12:21.787Z,62.75
2023-01-26T15:14:56.238Z,62.43
2023-01-26T15:17:30.579Z,62.56
2023-01-26T15:19:57.993Z,62.84
2023-01-26T15:22:26.541Z,63.21
2023-01-26T15:25:01.365Z,63.15
2023-01-26T15:27:35.541Z,63.03
2023-01-26T15:30:04.569Z,62.81
2023-01-26T15:32:37.233Z,62.94
2023-01-26T15:35:21.217Z,63.25
2023-01-26T15:37:48.836Z,63.17
2023-01-26T15:40:19.458Z,63.31
2023-01-26T15:42:46.722Z,63.47
2023-01-26T15:45:36.477Z,63.84
2023-01-26T15:48:03.948Z,63.90
2023-01-26T15:50:31.182Z,63.78
2023-01-26T15:52:58.380Z,64.00
2023-01-26T15:55:27.648Z,63.47
2023-01-26T15:57:54.874Z,63.24
2023-01-26T16:00:23.687Z,63.39
2023-01-26T16:02:51.493Z,64.16
2023-01-26T16:05:19.971Z,64.04
2023-01-26T16:07:48.204Z,64.15
2023-01-26T16:10:16.852Z,64.19
2023-01-26T16:12:44.764Z,64.46
2023-01-26T16:15:30.547Z,64.63
2023-01-26T16:17:57.765Z,64.96
2023-01-26T16:20:25.155Z,65.05
2023-01-26T16:22:52.491Z,65.21
2023-01-26T16:25:22.983Z,64.84
2023-01-26T16:27:50.543Z,65.35
2023-01-26T16:30:18.703Z,65.84
2023-01-26T16:32:45.933Z,65.37
2023-01-26T16:35:15.026Z,65.37
2023-01-26T16:37:42.841Z,65.93
2023-01-26T16:40:11.154Z,65.74
2023-01-26T16:42:39.895Z,66.13
2023-01-26T16:45:07.864Z,65.96
2023-01-26T16:47:35.191Z,65.72
2023-01-26T16:50:02.908Z,65.88
2023-01-26T16:52:30.172Z,65.92
2023-01-26T16:54:57.607Z,65.58
2023-01-26T16:57:24.944Z,65.66
2023-01-26T16:59:52.369Z,65.41
2023-01-26T17:02:34.180Z,65.49
2023-01-26T17:05:03.983Z,65.35
2023-01-26T17:07:31.461Z,65.63
2023-01-26T17:09:58.731Z,65.49
2023-01-26T17:12:33.409Z,65.48
2023-01-26T17:15:00.635Z,65.66
2023-01-26T17:17:27.873Z,66.20
2023-01-26T17:19:55.728Z,66.04
2023-01-26T17:22:23.624Z,65.63
2023-01-26T17:24:50.851Z,65.75
2023-01-26T17:27:18.150Z,65.93
2023-01-26T17:29:45.388Z,65.65
2023-01-26T17:32:12.677Z,65.50
2023-01-26T17:34:39.862Z,66.01
2023-01-26T17:37:07.119Z,65.79
2023-01-26T17:39:34.356Z,66.01
2023-01-26T17:42:01.720Z,66.34
2023-01-26T17:44:29.008Z,66.44
2023-01-26T17:46:56.233Z,66.36
2023-01-26T17:49:25.046Z,66.50
2023-01-26T17:51:52.397Z,66.28
2023-01-26T17:54:19.704Z,65.97
2023-01-26T17:56:46.963Z,66.17
2023-01-26T17:59:14.322Z,65.81
2023-01-26T18:01:41.638Z,65.95
2023-01-26T18:04:09.003Z,66.39
2023-01-26T18:06:36.256Z,66.54
2023-01-26T18:09:03.536Z,66.07
2023-01-26T18:11:31.043Z,66.40
2023-01-26T18:13:59.688Z,65.83
2023-01-26T18:16:26.936Z,66.17
2023-01-26T18:18:55.117Z,66.05
2023-01-26T18:21:27.347Z,66.34
2023-01-26T18:23:56.179Z,66.23
2023-01-26T18:26:24.753Z,66.10
2023-01-26T18:28:52.427Z,66.07
2023-01-26T18:31:24.154Z,65.85
2023-01-26T18:33:51.405Z,66.07
2023-01-26T18:36:19.507Z,65.91
2023-01-26T18:38:51.478Z,65.88
2023-01-26T18:41:19.190Z,65.65
2023-01-26T18:43:49.301Z,65.58
2023-01-26T18:46:16.829Z,65.77
2023-01-26T18:48:44.106Z,65.97
2023-01-26T18:51:11.443Z,65.89
2023-01-26T18:53:44.123Z,66.02
2023-01-26T18:56:15.235Z,65.99
2023-01-26T18:58:42.705Z,65.88
2023-01-26T19:01:15.021Z,65.89
2023-01-26T19:03:47.435Z,65.66
2023-01-26T19:06:18.434Z,65.94
2023-01-26T19:08:46.607Z,66.05
2023-01-26T19:11:15.364Z,65.80
2023-01-26T19:13:44.240Z,65.69
2023-01-26T19:16:11.533Z,65.64
2023-01-26T19:18:38.860Z,65.18
2023-01-26T19:21:06.128Z,65.54
2023-01-26T19:23:34.173Z,65.76
2023-01-26T19:26:01.586Z,66.00
2023-01-26T19:28:28.820Z,66.26
2023-01-26T19:31:02.168Z,66.03
2023-01-26T19:33:30.680Z,66.11
2023-01-26T19:36:00.380Z,65.78
2023-01-26T19:38:29.953Z,65.58
2023-01-26T19:41:00.531Z,65.73
2023-01-26T19:43:28.335Z,65.34
2023-01-26T19:45:56.691Z,65.77
2023-01-26T19:48:27.994Z,65.87
2023-01-26T19:50:59.399Z,65.06
2023-01-26T19:53:28.089Z,65.38
2023-01-26T19:55:55.446Z,64.98
2023-01-26T19:58:22.785Z,65.54
2023-01-26T20:00:50.124Z,65.83
2023-01-26T20:03:18.872Z,65.69
2023-01-26T20:05:46.077Z,65.69
2023-01-26T20:08:13.361Z,65.75
2023-01-26T20:10:40.699Z,66.16
2023-01-26T20:13:07.905Z,65.69
2023-01-26T20:15:35.634Z,65.55
2023-01-26T20:18:03.612Z,65.62
2023-01-26T20:20:30.882Z,65.75
2023-01-26T20:22:58.164Z,65.06
2023-01-26T20:25:31.755Z,64.34
2023-01-26T20:27:58.976Z,64.79
2023-01-26T20:30:26.185Z,64.67
2023-01-26T20:32:54.309Z,64.79
2023-01-26T20:35:21.772Z,64.94
2023-01-26T20:37:48.965Z,64.82
2023-01-26T20:40:16.232Z,65.27
2023-01-26T20:42:43.452Z,65.42
2023-01-26T20:45:11.340Z,65.67
2023-01-26T20:47:40.444Z,65.69
2023-01-26T20:50:08.530Z,65.44
2023-01-26T20:52:35.911Z,65.49
2023-01-26T20:55:03.588Z,64.97
2023-01-26T20:57:32.370Z,64.89
2023-01-26T21:00:00.111Z,64.72
2023-01-26T21:02:27.521Z,64.50
2023-01-26T21:04:54.766Z,65.12
2023-01-26T21:07:22.116Z,65.30
2023-01-26T21:09:49.394Z,65.31
2023-01-26T21:12:16.607Z,65.09
2023-01-26T21:14:45.411Z,64.78
2023-01-26T21:17:12.835Z,65.07
2023-01-26T21:19:40.052Z,64.66
2023-01-26T21:22:07.289Z,65.20
2023-01-26T21:24:35.203Z,65.26
2023-01-26T21:27:02.869Z,65.31
2023-01-26T21:29:30.105Z,65.31
2023-01-26T21:31:57.454Z,64.81
2023-01-26T21:34:24.696Z,65.06
2023-01-26T21:36:51.922Z,65.17
2023-01-26T21:39:21.993Z,65.41
2023-01-26T21:41:59.730Z,65.38
2023-01-26T21:44:31.027Z,65.64
2023-01-26T21:47:03.873Z,65.23
2023-01-26T21:49:31.149Z,65.05
2023-01-26T21:52:16.943Z,64.78
2023-01-26T21:54:45.689Z,64.97
2023-01-26T21:57:31.580Z,64.55
2023-01-26T21:59:58.801Z,64.58
2023-01-26T22:02:26.514Z,64.41
2023-01-26T22:04:53.733Z,64.60
2023-01-26T22:07:21.012Z,64.86
2023-01-26T22:09:48.544Z,64.57
2023-01-26T22:12:17.043Z,64.42
2023-01-26T22:14:44.304Z,64.84
2023-01-26T22:17:11.504Z,64.85
2023-01-26T22:19:38.764Z,65.00
2023-01-26T22:22:06.202Z,64.50
2023-01-26T22:24:33.486Z,64.76
2023-01-26T22:27:01.073Z,64.90
2023-01-26T22:29:28.368Z,65.25
2023-01-26T22:31:55.604Z,65.08
2023-01-26T22:34:22.990Z,65.34
2023-01-26T22:36:50.227Z,65.12
2023-01-26T22:39:17.649Z,65.46
2023-01-26T22:41:44.839Z,65.04
2023-01-26T22:44:12.367Z,64.71
2023-01-26T22:46:39.670Z,64.94
2023-01-26T22:49:06.990Z,65.03
2023-01-26T22:51:37.428Z,65.05
2023-01-26T22:54:05.390Z,65.06
2023-01-26T22:56:32.692Z,65.07
2023-01-26T22:59:00.742Z,64.75
2023-01-26T23:01:29.341Z,64.97
2023-01-26T23:03:56.847Z,64.74
2023-01-26T23:06:24.796Z,65.26
2023-01-26T23:08:52.180Z,65.26
2023-01-26T23:11:21.397Z,65.22
2023-01-26T23:13:49.483Z,65.13
2023-01-26T23:16:17.473Z,65.22
2023-01-26T23:18:45.156Z,65.43
2023-01-26T23:21:12.392Z,65.37
2023-01-26T23:23:40.776Z,65.53
2023-01-26T23:26:08.685Z,65.41
2023-01-26T23:28:37.348Z,65.67
2023-01-26T23:31:05.084Z,64.98
2023-01-26T23:33:34.174Z,65.00
2023-01-26T23:36:01.677Z,65.04
2023-01-26T23:38:29.753Z,64.87
2023-01-26T23:40:57.551Z,65.05
2023-01-26T23:43:24.863Z,65.26
2023-01-26T23:45:52.554Z,64.91
2023-01-26T23:48:20.103Z,64.84
2023-01-26T23:50:47.371Z,64.56
2023-01-26T23:53:14.875Z,64.58
2023-01-26T23:55:43.019Z,64.87
2023-01-26T23:58:10.988Z,65.39
